createdAt,value
2023-08-20T00:00:17.822Z,21.99
2023-08-20T00:02:25.321Z,21.92
2023-08-20T00:04:29.119Z,21.82
2023-08-20T00:06:33.267Z,21.86
2023-08-20T00:08:37.098Z,21.74
2023-08-20T00:10:40.625Z,21.68
2023-08-20T00:12:44.134Z,21.64
2023-08-20T00:14:55.226Z,21.77
2023-08-20T00:17:01.074Z,21.50
2023-08-20T00:19:05.297Z,21.19
2023-08-20T00:21:09.448Z,21.00
2023-08-20T00:23:13.509Z,20.76
2023-08-20T00:25:18.415Z,21.25
2023-08-20T00:27:21.855Z,21.35
2023-08-20T00:29:25.280Z,21.40
2023-08-20T00:31:28.679Z,21.54
2023-08-20T00:33:34.372Z,21.56
2023-08-20T00:35:37.992Z,21.50
2023-08-20T00:37:41.860Z,21.46
2023-08-20T00:39:47.436Z,21.31
2023-08-20T00:41:51.345Z,21.56
2023-08-20T00:43:54.753Z,21.60
2023-08-20T00:46:00.935Z,21.61
2023-08-20T00:48:06.306Z,21.49
2023-08-20T00:50:12.179Z,21.24
2023-08-20T00:52:18.036Z,20.92
2023-08-20T00:54:22.433Z,20.95
2023-08-20T00:56:25.898Z,21.21
2023-08-20T00:58:29.289Z,21.35
2023-08-20T01:00:34.723Z,21.21
2023-08-20T01:02:38.944Z,21.14
2023-08-20T01:04:43.219Z,21.21
2023-08-20T01:06:57.074Z,21.19
2023-08-20T01:09:07.803Z,21.37
2023-08-20T01:11:18.385Z,21.27
2023-08-20T01:13:21.892Z,21.36
2023-08-20T01:15:26.141Z,21.15
2023-08-20T01:17:30.411Z,20.87
2023-08-20T01:19:36.085Z,20.59
2023-08-20T01:21:41.304Z,20.68
2023-08-20T01:24:07.573Z,20.63
2023-08-20T01:26:25.712Z,20.47
2023-08-20T01:28:32.044Z,20.48
2023-08-20T01:30:37.138Z,20.36
2023-08-20T01:32:42.962Z,20.31
2023-08-20T01:34:49.520Z,20.44
2023-08-20T01:36:53.319Z,20.72
2023-08-20T01:38:56.851Z,20.88
2023-08-20T01:41:00.972Z,20.85
2023-08-20T01:43:04.625Z,20.88
2023-08-20T01:45:10.474Z,20.92
2023-08-20T01:47:14.664Z,20.86
2023-08-20T01:49:18.041Z,20.85
2023-08-20T01:51:22.011Z,20.83
2023-08-20T01:53:25.430Z,21.03
2023-08-20T01:55:31.152Z,21.04
2023-08-20T01:57:36.912Z,20.97
2023-08-20T01:59:40.521Z,20.97
2023-08-20T02:01:44.333Z,21.11
2023-08-20T02:03:48.039Z,20.79
2023-08-20T02:05:51.534Z,20.96
2023-08-20T02:07:54.915Z,20.94
2023-08-20T02:09:58.570Z,20.72
2023-08-20T02:12:01.952Z,20.92
2023-08-20T02:14:05.959Z,20.88
2023-08-20T02:16:09.744Z,20.73
2023-08-20T02:18:14.519Z,20.83
2023-08-20T02:20:18.620Z,20.72
2023-08-20T02:22:22.176Z,20.86
2023-08-20T02:24:24.617Z,20.90
2023-08-20T02:26:28.071Z,20.87
2023-08-20T02:28:30.612Z,20.97
2023-08-20T02:30:34.000Z,20.92
2023-08-20T02:32:37.420Z,20.82
2023-08-20T02:34:42.128Z,20.87
2023-08-20T02:36:45.526Z,20.77
2023-08-20T02:38:48.996Z,20.66
2023-08-20T02:40:52.389Z,20.63
2023-08-20T02:42:56.288Z,20.71
2023-08-20T02:45:00.851Z,20.42
2023-08-20T02:47:04.277Z,20.32
2023-08-20T02:49:08.368Z,20.14
2023-08-20T02:51:13.181Z,20.15
2023-08-20T02:53:16.661Z,20.40
2023-08-20T02:55:19.997Z,20.66
2023-08-20T02:57:23.547Z,20.76
2023-08-20T02:59:26.944Z,20.75
2023-08-20T03:01:30.649Z,20.76
2023-08-20T03:03:34.306Z,20.84
2023-08-20T03:05:37.916Z,20.85
2023-08-20T03:07:42.719Z,20.59
2023-08-20T03:09:46.044Z,20.83
2023-08-20T03:11:49.560Z,20.58
2023-08-20T03:13:52.938Z,20.52
2023-08-20T03:15:56.312Z,20.54
2023-08-20T03:17:59.821Z,20.40
2023-08-20T03:20:06.993Z,20.32
2023-08-20T03:22:10.349Z,20.42
2023-08-20T03:24:15.012Z,20.46
2023-08-20T03:26:18.360Z,20.69
2023-08-20T03:28:23.454Z,20.48
2023-08-20T03:30:27.428Z,20.31
2023-08-20T03:32:30.968Z,20.44
2023-08-20T03:34:34.578Z,20.58
2023-08-20T03:36:37.987Z,20.35
2023-08-20T03:38:41.433Z,20.23
2023-08-20T03:40:47.326Z,20.23
2023-08-20T03:42:49.711Z,20.06
2023-08-20T03:44:54.438Z,20.21
2023-08-20T03:46:58.815Z,20.21
2023-08-20T03:49:03.984Z,20.45
2023-08-20T03:51:07.527Z,20.52
2023-08-20T03:53:10.909Z,20.56
2023-08-20T03:55:14.302Z,20.62
2023-08-20T03:57:19.061Z,20.75
2023-08-20T03:59:23.316Z,20.67
2023-08-20T04:01:26.898Z,20.70
2023-08-20T04:03:30.314Z,20.61
2023-08-20T04:05:38.142Z,20.46
2023-08-20T04:07:43.874Z,20.66
2023-08-20T04:09:47.267Z,20.65
2023-08-20T04:11:51.254Z,20.72
2023-08-20T04:13:56.294Z,20.66
2023-08-20T04:16:01.156Z,20.87
2023-08-20T04:18:07.934Z,20.70
2023-08-20T04:20:14.658Z,20.70
2023-08-20T04:22:18.818Z,20.58
2023-08-20T04:24:22.444Z,20.69
2023-08-20T04:26:26.261Z,20.76
2023-08-20T04:28:29.719Z,20.57
2023-08-20T04:30:34.504Z,20.71
2023-08-20T04:32:37.986Z,20.83
2023-08-20T04:34:41.403Z,20.93
2023-08-20T04:36:44.824Z,20.90
2023-08-20T04:38:48.211Z,21.14
2023-08-20T04:40:51.760Z,20.99
2023-08-20T04:42:55.251Z,20.72
2023-08-20T04:44:58.703Z,20.44
2023-08-20T04:47:04.944Z,20.86
2023-08-20T04:49:10.683Z,20.93
2023-08-20T04:51:15.406Z,20.80
2023-08-20T04:53:19.335Z,20.76
2023-08-20T04:55:24.299Z,20.94
2023-08-20T04:57:27.814Z,20.84
2023-08-20T04:59:32.977Z,20.99
2023-08-20T05:01:36.293Z,20.81
2023-08-20T05:03:41.244Z,20.81
2023-08-20T05:05:44.723Z,20.46
2023-08-20T05:07:48.179Z,20.29
2023-08-20T05:09:52.163Z,19.98
2023-08-20T05:11:56.284Z,20.20
2023-08-20T05:13:59.673Z,20.53
2023-08-20T05:16:03.169Z,20.69
2023-08-20T05:18:07.125Z,20.83
2023-08-20T05:20:13.153Z,20.95
2023-08-20T05:22:16.635Z,20.65
2023-08-20T05:24:20.101Z,20.47
2023-08-20T05:26:24.381Z,20.45
2023-08-20T05:28:27.850Z,20.40
2023-08-20T05:30:32.894Z,20.39
2023-08-20T05:32:36.641Z,20.37
2023-08-20T05:34:40.645Z,20.41
2023-08-20T05:36:45.533Z,20.34
2023-08-20T05:38:48.968Z,20.35
2023-08-20T05:40:52.716Z,20.32
2023-08-20T05:42:56.264Z,20.28
2023-08-20T05:45:00.231Z,20.27
2023-08-20T05:47:06.511Z,20.22
2023-08-20T05:49:10.685Z,20.28
2023-08-20T05:51:14.971Z,20.28
2023-08-20T05:53:20.029Z,20.26
2023-08-20T05:55:24.284Z,20.22
2023-08-20T05:57:27.828Z,20.22
2023-08-20T05:59:31.354Z,20.30
2023-08-20T06:01:34.887Z,20.27
2023-08-20T06:03:38.376Z,20.26
2023-08-20T06:05:41.731Z,20.22
2023-08-20T06:07:45.266Z,20.31
2023-08-20T06:09:51.146Z,20.57
2023-08-20T06:11:54.542Z,20.45
2023-08-20T06:16:15.499Z,20.57
2023-08-20T06:18:18.980Z,20.83
2023-08-20T06:20:22.418Z,20.94
2023-08-20T06:22:25.804Z,20.92
2023-08-20T06:24:29.185Z,21.14
2023-08-20T06:26:33.928Z,21.22
2023-08-20T06:28:37.354Z,21.24
2023-08-20T06:30:40.727Z,21.27
2023-08-20T06:32:45.128Z,21.05
2023-08-20T06:34:48.645Z,21.11
2023-08-20T06:36:52.034Z,21.25
2023-08-20T06:38:54.545Z,21.37
2023-08-20T06:40:58.648Z,21.32
2023-08-20T06:43:03.367Z,21.06
2023-08-20T06:45:09.069Z,21.19
2023-08-20T06:47:12.956Z,21.33
2023-08-20T06:49:16.466Z,21.64
2023-08-20T06:51:23.128Z,21.83
2023-08-20T06:53:26.584Z,21.82
2023-08-20T06:55:30.046Z,21.58
2023-08-20T06:57:33.736Z,21.73
2023-08-20T06:59:38.619Z,21.68
2023-08-20T07:01:42.013Z,21.76
2023-08-20T07:03:46.292Z,21.23
2023-08-20T07:05:49.709Z,21.90
2023-08-20T07:07:53.059Z,21.76
2023-08-20T07:09:56.480Z,21.89
2023-08-20T07:11:59.905Z,21.96
2023-08-20T07:14:03.807Z,22.06
2023-08-20T07:16:08.608Z,22.12
2023-08-20T07:18:14.327Z,22.07
2023-08-20T07:20:18.028Z,22.05
2023-08-20T07:22:21.405Z,22.02
2023-08-20T07:24:26.749Z,22.14
2023-08-20T07:26:30.236Z,22.06
2023-08-20T07:28:47.567Z,22.04
2023-08-20T07:30:50.958Z,22.06
2023-08-20T07:32:55.702Z,22.01
2023-08-20T07:34:59.049Z,22.02
2023-08-20T07:37:03.820Z,22.12
2023-08-20T07:39:07.294Z,22.07
2023-08-20T07:41:09.732Z,22.15
2023-08-20T07:43:13.109Z,22.11
2023-08-20T07:45:16.526Z,22.07
2023-08-20T07:47:19.908Z,22.20
2023-08-20T07:49:24.857Z,22.20
2023-08-20T07:51:28.401Z,22.18
2023-08-20T07:53:32.203Z,22.32
2023-08-20T07:55:35.595Z,22.34
2023-08-20T07:57:38.954Z,22.38
2023-08-20T07:59:42.369Z,22.44
2023-08-20T08:01:44.837Z,22.47
2023-08-20T08:03:48.331Z,22.42
2023-08-20T08:05:52.236Z,22.45
2023-08-20T08:07:55.665Z,22.63
2023-08-20T08:09:59.109Z,22.43
2023-08-20T08:12:03.085Z,22.47
2023-08-20T08:14:06.463Z,22.58
2023-08-20T08:16:09.961Z,22.58
2023-08-20T08:18:14.119Z,22.50
2023-08-20T08:20:17.498Z,22.58
2023-08-20T08:22:23.449Z,22.66
2023-08-20T08:24:26.881Z,22.78
2023-08-20T08:26:30.537Z,22.72
2023-08-20T08:28:33.924Z,22.65
2023-08-20T08:30:37.306Z,22.40
2023-08-20T08:32:40.726Z,22.85
2023-08-20T08:34:44.117Z,22.88
2023-08-20T08:36:47.451Z,23.10
2023-08-20T08:38:52.432Z,23.17
2023-08-20T08:40:57.332Z,23.47
2023-08-20T08:43:02.073Z,23.14
2023-08-20T08:45:06.466Z,23.20
2023-08-20T08:47:10.040Z,23.19
2023-08-20T08:49:13.595Z,23.25
2023-08-20T08:51:17.381Z,23.33
2023-08-20T08:53:21.276Z,23.43
2023-08-20T08:55:26.155Z,23.30
2023-08-20T08:57:29.615Z,23.49
2023-08-20T08:59:33.904Z,23.50
2023-08-20T09:01:41.189Z,23.48
2023-08-20T09:03:44.554Z,23.61
2023-08-20T09:05:49.113Z,23.75
2023-08-20T09:07:57.522Z,23.78
2023-08-20T09:10:01.664Z,23.87
2023-08-20T09:12:14.849Z,24.13
2023-08-20T09:14:25.423Z,24.07
2023-08-20T09:16:31.884Z,24.20
2023-08-20T09:18:39.770Z,24.23
2023-08-20T09:20:43.157Z,24.45
2023-08-20T09:22:51.150Z,24.53
2023-08-20T09:24:56.077Z,24.39
2023-08-20T09:27:00.313Z,24.25
2023-08-20T09:29:05.668Z,24.40
2023-08-20T09:31:11.227Z,24.53
2023-08-20T09:33:15.606Z,24.52
2023-08-20T09:35:20.894Z,24.66
2023-08-20T09:37:25.133Z,24.85
2023-08-20T09:39:28.565Z,24.84
2023-08-20T09:41:32.751Z,24.99
2023-08-20T09:43:39.861Z,25.23
2023-08-20T09:45:47.258Z,25.05
2023-08-20T09:47:51.503Z,25.23
2023-08-20T09:49:56.673Z,25.17
2023-08-20T09:52:01.060Z,25.23
2023-08-20T09:54:13.885Z,25.68
2023-08-20T09:56:23.740Z,25.55
2023-08-20T09:58:28.308Z,25.85
2023-08-20T10:00:32.827Z,25.90
2023-08-20T10:02:38.258Z,25.83
2023-08-20T10:04:42.055Z,25.94
2023-08-20T10:06:45.685Z,25.96
2023-08-20T10:08:50.546Z,26.02
2023-08-20T10:10:54.162Z,26.24
2023-08-20T10:12:58.513Z,26.61
2023-08-20T10:15:03.041Z,26.19
2023-08-20T10:17:09.693Z,26.05
2023-08-20T10:19:16.697Z,26.02
2023-08-20T10:21:20.847Z,26.37
2023-08-20T10:23:25.092Z,26.73
2023-08-20T10:25:28.733Z,26.75
2023-08-20T10:27:34.471Z,26.64
2023-08-20T10:29:39.993Z,26.93
2023-08-20T10:31:48.494Z,27.13
2023-08-20T10:33:52.893Z,26.93
2023-08-20T10:35:57.603Z,26.53
2023-08-20T10:38:08.336Z,26.53
2023-08-20T10:40:12.754Z,26.68
2023-08-20T10:42:27.586Z,26.58
2023-08-20T10:45:00.756Z,26.49
2023-08-20T10:47:09.001Z,26.66
2023-08-20T10:49:19.253Z,26.64
2023-08-20T10:51:29.636Z,26.79
2023-08-20T10:53:32.974Z,26.93
2023-08-20T10:55:36.378Z,27.15
2023-08-20T10:57:39.978Z,27.22
2023-08-20T10:59:43.867Z,27.33
2023-08-20T11:01:48.411Z,27.39
2023-08-20T11:03:52.807Z,27.14
2023-08-20T11:05:56.424Z,27.24
2023-08-20T11:08:01.829Z,27.37
2023-08-20T11:10:09.635Z,27.60
2023-08-20T11:12:12.952Z,27.55
2023-08-20T11:14:17.438Z,27.43
2023-08-20T11:16:20.760Z,27.62
2023-08-20T11:18:24.158Z,27.43
2023-08-20T11:20:27.666Z,27.40
2023-08-20T11:22:31.154Z,27.97
2023-08-20T11:24:35.001Z,28.16
2023-08-20T11:26:41.482Z,27.94
2023-08-20T11:28:47.940Z,27.95
2023-08-20T11:30:50.663Z,28.13
2023-08-20T11:32:54.767Z,28.43
2023-08-20T11:34:58.510Z,28.11
2023-08-20T11:37:01.989Z,28.22
2023-08-20T11:39:05.689Z,28.20
2023-08-20T11:41:10.404Z,28.67
2023-08-20T11:43:14.037Z,28.66
2023-08-20T11:45:17.539Z,28.64
2023-08-20T11:47:21.337Z,29.03
2023-08-20T11:49:31.208Z,28.91
2023-08-20T11:51:38.462Z,28.81
2023-08-20T11:53:42.431Z,28.74
2023-08-20T11:55:45.796Z,28.55
2023-08-20T11:57:52.259Z,28.62
2023-08-20T11:59:55.695Z,28.80
2023-08-20T12:02:01.209Z,28.37
2023-08-20T12:04:05.766Z,28.04
2023-08-20T12:06:20.402Z,28.36
2023-08-20T12:08:23.864Z,28.61
2023-08-20T12:10:27.446Z,28.75
2023-08-20T12:12:30.888Z,29.25
2023-08-20T12:14:36.087Z,29.58
2023-08-20T12:16:39.795Z,29.46
2023-08-20T12:18:43.411Z,29.40
2023-08-20T12:20:46.818Z,29.34
2023-08-20T12:22:49.380Z,29.50
2023-08-20T12:24:54.406Z,29.33
2023-08-20T12:26:57.884Z,29.31
2023-08-20T12:29:01.594Z,29.55
2023-08-20T12:31:06.346Z,29.63
2023-08-20T12:33:09.820Z,29.64
2023-08-20T12:35:14.151Z,29.92
2023-08-20T12:37:17.571Z,29.58
2023-08-20T12:39:21.201Z,29.72
2023-08-20T12:41:25.285Z,29.35
2023-08-20T12:43:28.743Z,29.25
2023-08-20T12:45:32.252Z,29.42
2023-08-20T12:47:36.426Z,29.91
2023-08-20T12:49:40.217Z,30.01
2023-08-20T12:51:43.593Z,29.83
2023-08-20T12:53:47.092Z,29.55
2023-08-20T12:55:50.484Z,29.26
2023-08-20T12:57:56.114Z,29.38
2023-08-20T13:00:00.039Z,30.20
2023-08-20T13:02:03.971Z,30.13
2023-08-20T13:04:10.281Z,30.04
2023-08-20T13:06:14.540Z,30.56
2023-08-20T13:08:18.549Z,30.65
2023-08-20T13:10:23.238Z,30.48
2023-08-20T13:12:29.328Z,30.73
2023-08-20T13:14:33.248Z,30.62
2023-08-20T13:16:37.834Z,30.33
2023-08-20T13:18:41.678Z,30.41
2023-08-20T13:20:46.617Z,30.44
2023-08-20T13:22:50.174Z,30.68
2023-08-20T13:24:53.541Z,30.67
2023-08-20T13:26:57.063Z,30.34
2023-08-20T13:29:00.524Z,30.57
2023-08-20T13:31:04.055Z,30.39
2023-08-20T13:33:08.257Z,30.55
2023-08-20T13:35:11.839Z,30.30
2023-08-20T13:37:16.569Z,30.66
2023-08-20T13:39:20.240Z,30.49
2023-08-20T13:41:23.658Z,31.05
2023-08-20T13:43:27.037Z,30.91
2023-08-20T13:45:30.447Z,31.01
2023-08-20T13:47:33.953Z,30.76
2023-08-20T13:49:37.405Z,30.77
2023-08-20T13:51:39.944Z,30.56
2023-08-20T13:53:44.673Z,30.36
2023-08-20T13:55:48.029Z,30.70
2023-08-20T13:57:51.434Z,30.84
2023-08-20T13:59:54.753Z,31.03
2023-08-20T14:01:58.153Z,30.82
2023-08-20T14:04:01.566Z,31.19
2023-08-20T14:06:05.034Z,31.12
2023-08-20T14:08:08.547Z,30.99
2023-08-20T14:10:13.770Z,31.25
2023-08-20T14:12:17.194Z,31.37
2023-08-20T14:14:20.622Z,30.99
2023-08-20T14:16:24.003Z,31.42
2023-08-20T14:18:27.521Z,31.31
2023-08-20T14:20:31.048Z,31.04
2023-08-20T14:22:34.744Z,30.87
2023-08-20T14:24:38.431Z,31.40
2023-08-20T14:26:43.105Z,31.00
2023-08-20T14:28:46.720Z,31.09
2023-08-20T14:30:51.121Z,30.70
2023-08-20T14:32:55.439Z,31.06
2023-08-20T14:34:58.823Z,31.35
2023-08-20T14:37:02.206Z,31.28
2023-08-20T14:39:07.897Z,31.36
2023-08-20T14:41:11.375Z,31.35
2023-08-20T14:43:16.108Z,31.20
2023-08-20T14:45:18.445Z,31.18
2023-08-20T14:47:21.907Z,31.17
2023-08-20T14:49:25.377Z,31.04
2023-08-20T14:51:29.454Z,30.98
2023-08-20T14:53:33.128Z,30.74
2023-08-20T14:55:36.480Z,30.77
2023-08-20T14:57:50.828Z,30.93
2023-08-20T14:59:56.742Z,31.25
2023-08-20T15:02:00.302Z,31.43
2023-08-20T15:04:03.753Z,31.63
2023-08-20T15:06:07.144Z,31.79
2023-08-20T15:08:09.709Z,31.60
2023-08-20T15:10:13.084Z,31.54
2023-08-20T15:12:16.512Z,31.27
2023-08-20T15:14:20.025Z,31.32
2023-08-20T15:16:24.839Z,31.21
2023-08-20T15:18:28.273Z,31.07
2023-08-20T15:20:31.802Z,30.99
2023-08-20T15:22:34.201Z,31.43
2023-08-20T15:24:37.756Z,31.27
2023-08-20T15:26:41.136Z,31.10
2023-08-20T15:28:44.478Z,31.29
2023-08-20T15:30:48.038Z,31.42
2023-08-20T15:32:52.905Z,30.71
2023-08-20T15:34:56.814Z,30.35
2023-08-20T15:37:00.173Z,30.71
2023-08-20T15:39:04.294Z,30.47
2023-08-20T15:41:07.781Z,30.77
2023-08-20T15:43:11.121Z,30.79
2023-08-20T15:45:14.565Z,30.56
2023-08-20T15:47:17.980Z,30.92
2023-08-20T15:49:22.885Z,30.79
2023-08-20T15:51:26.322Z,30.77
2023-08-20T15:53:29.669Z,30.71
2023-08-20T15:55:33.030Z,30.75
2023-08-20T15:57:36.601Z,30.53
2023-08-20T15:59:40.314Z,30.31
2023-08-20T16:01:44.084Z,30.60
2023-08-20T16:03:47.614Z,30.33
2023-08-20T16:05:52.447Z,30.46
2023-08-20T16:07:55.786Z,30.53
2023-08-20T16:09:59.124Z,30.35
2023-08-20T16:12:02.453Z,30.60
2023-08-20T16:14:05.900Z,30.51
2023-08-20T16:16:09.354Z,31.02
2023-08-20T16:18:12.816Z,30.74
2023-08-20T16:20:16.232Z,30.87
2023-08-20T16:22:21.036Z,30.56
2023-08-20T16:24:24.419Z,30.65
2023-08-20T16:26:27.746Z,30.56
2023-08-20T16:28:31.316Z,30.34
2023-08-20T16:30:34.840Z,30.32
2023-08-20T16:32:38.357Z,30.50
2023-08-20T16:34:42.862Z,30.42
2023-08-20T16:36:46.300Z,30.39
2023-08-20T16:38:50.971Z,30.16
2023-08-20T16:40:55.565Z,30.23
2023-08-20T16:43:00.684Z,30.14
2023-08-20T16:45:07.337Z,30.41
2023-08-20T16:47:10.882Z,30.27
2023-08-20T16:49:14.476Z,30.13
2023-08-20T16:51:17.804Z,29.71
2023-08-20T16:53:21.778Z,29.59
2023-08-20T16:55:26.974Z,29.36
2023-08-20T16:57:30.644Z,29.15
2023-08-20T16:59:34.010Z,29.64
2023-08-20T17:01:37.506Z,29.80
2023-08-20T17:03:41.196Z,29.36
2023-08-20T17:05:44.663Z,29.06
2023-08-20T17:07:48.023Z,28.50
2023-08-20T17:09:51.758Z,28.47
2023-08-20T17:11:57.236Z,28.50
2023-08-20T17:14:01.144Z,28.58
2023-08-20T17:16:05.178Z,28.64
2023-08-20T17:18:09.037Z,28.55
2023-08-20T17:20:13.591Z,28.66
2023-08-20T17:22:17.037Z,28.57
2023-08-20T17:24:20.612Z,28.51
2023-08-20T17:26:24.026Z,28.43
2023-08-20T17:28:28.763Z,28.41
2023-08-20T17:30:31.430Z,28.26
2023-08-20T17:32:35.103Z,28.22
2023-08-20T17:34:38.790Z,28.42
2023-08-20T17:36:42.153Z,28.34
2023-08-20T17:38:45.708Z,28.22
2023-08-20T17:40:49.081Z,27.99
2023-08-20T17:42:52.454Z,27.92
2023-08-20T17:44:57.261Z,28.25
2023-08-20T17:47:00.716Z,27.91
2023-08-20T17:49:04.303Z,27.77
2023-08-20T17:51:07.672Z,27.17
2023-08-20T17:53:11.052Z,27.49
2023-08-20T17:55:14.553Z,27.46
2023-08-20T17:57:17.945Z,27.41
2023-08-20T17:59:21.450Z,27.24
2023-08-20T18:01:26.249Z,27.38
2023-08-20T18:03:29.762Z,27.10
2023-08-20T18:05:33.633Z,27.22
2023-08-20T18:07:37.049Z,27.10
2023-08-20T18:09:40.426Z,27.17
2023-08-20T18:11:43.830Z,26.99
2023-08-20T18:13:47.218Z,27.40
2023-08-20T18:15:50.710Z,27.15
2023-08-20T18:17:55.474Z,26.91
2023-08-20T18:19:58.058Z,26.98
2023-08-20T18:22:01.480Z,26.83
2023-08-20T18:24:05.347Z,26.80
2023-08-20T18:26:09.154Z,26.93
2023-08-20T18:28:12.656Z,26.65
2023-08-20T18:30:16.078Z,26.70
2023-08-20T18:32:19.511Z,26.89
2023-08-20T18:34:24.233Z,26.70
2023-08-20T18:36:27.817Z,26.62
2023-08-20T18:38:42.129Z,26.43
2023-08-20T18:40:45.536Z,26.38
2023-08-20T18:42:49.284Z,26.24
2023-08-20T18:44:52.604Z,26.20
2023-08-20T18:46:56.114Z,26.38
2023-08-20T18:48:59.553Z,26.24
2023-08-20T18:51:07.186Z,26.15
2023-08-20T18:53:10.624Z,26.02
2023-08-20T18:55:14.025Z,26.22
2023-08-20T18:57:17.730Z,26.50
2023-08-20T18:59:21.228Z,26.62
2023-08-20T19:01:24.690Z,26.27
2023-08-20T19:03:28.198Z,25.96
2023-08-20T19:05:31.973Z,26.01
2023-08-20T19:07:38.154Z,25.91
2023-08-20T19:09:41.672Z,26.01
2023-08-20T19:11:45.141Z,26.30
2023-08-20T19:13:48.598Z,26.44
2023-08-20T19:15:54.489Z,26.34
2023-08-20T19:17:58.563Z,25.83
2023-08-20T19:20:02.043Z,25.60
2023-08-20T19:22:05.604Z,25.46
2023-08-20T19:24:10.356Z,25.58
2023-08-20T19:26:13.822Z,25.86
2023-08-20T19:28:17.189Z,25.87
2023-08-20T19:30:20.678Z,25.55
2023-08-20T19:32:24.260Z,25.48
2023-08-20T19:34:27.743Z,25.78
2023-08-20T19:36:31.131Z,25.78
2023-08-20T19:38:34.495Z,25.90
2023-08-20T19:40:39.843Z,25.79
2023-08-20T19:42:45.093Z,25.57
2023-08-20T19:44:48.480Z,25.47
2023-08-20T19:46:51.946Z,25.36
2023-08-20T19:48:55.506Z,25.72
2023-08-20T19:50:59.195Z,25.62
2023-08-20T19:53:02.571Z,25.52
2023-08-20T19:55:06.814Z,25.46
2023-08-20T19:57:11.540Z,25.37
2023-08-20T19:59:15.417Z,24.86
2023-08-20T20:01:19.301Z,24.82
2023-08-20T20:03:22.737Z,25.02
2023-08-20T20:05:26.884Z,25.20
2023-08-20T20:07:30.298Z,25.03
2023-08-20T20:09:33.681Z,25.10
2023-08-20T20:11:37.125Z,25.25
2023-08-20T20:13:42.066Z,25.27
2023-08-20T20:15:45.852Z,25.31
2023-08-20T20:17:49.309Z,25.17
2023-08-20T20:19:52.753Z,24.76
2023-08-20T20:21:56.156Z,24.55
2023-08-20T20:23:58.600Z,24.36
2023-08-20T20:26:05.016Z,24.41
2023-08-20T20:28:08.446Z,24.40
2023-08-20T20:30:12.950Z,24.35
2023-08-20T20:32:16.651Z,24.17
2023-08-20T20:34:20.084Z,24.12
2023-08-20T20:36:23.484Z,24.12
2023-08-20T20:38:27.608Z,24.13
2023-08-20T20:40:30.976Z,24.17
2023-08-20T20:42:34.379Z,24.02
2023-08-20T20:44:37.964Z,24.28
2023-08-20T20:46:42.778Z,24.15
2023-08-20T20:48:46.326Z,24.40
2023-08-20T20:50:49.951Z,24.37
2023-08-20T20:52:53.335Z,24.36
2023-08-20T20:54:56.946Z,24.26
2023-08-20T20:57:00.777Z,23.93
2023-08-20T20:59:05.328Z,24.19
2023-08-20T21:01:09.125Z,24.38
2023-08-20T21:03:13.884Z,24.43
2023-08-20T21:05:17.414Z,24.29
2023-08-20T21:07:20.857Z,24.38
2023-08-20T21:09:24.259Z,24.51
2023-08-20T21:11:27.708Z,24.54
2023-08-20T21:13:33.821Z,24.52
2023-08-20T21:15:37.175Z,24.21
2023-08-20T21:17:40.824Z,23.97
2023-08-20T21:19:45.469Z,24.26
2023-08-20T21:21:48.902Z,24.35
2023-08-20T21:23:56.306Z,24.22
2023-08-20T21:25:59.626Z,24.11
2023-08-20T21:28:02.998Z,24.13
2023-08-20T21:30:07.276Z,24.08
2023-08-20T21:32:10.576Z,24.16
2023-08-20T21:34:13.879Z,24.21
2023-08-20T21:36:18.638Z,24.11
2023-08-20T21:38:20.964Z,24.23
2023-08-20T21:40:24.323Z,24.16
2023-08-20T21:42:27.035Z,24.14
2023-08-20T21:44:30.419Z,24.30
2023-08-20T21:46:33.810Z,24.25
2023-08-20T21:48:37.218Z,24.26
2023-08-20T21:50:41.310Z,23.81
2023-08-20T21:52:46.641Z,23.69
2023-08-20T21:54:53.201Z,23.88
2023-08-20T21:56:56.918Z,23.92
2023-08-20T21:59:04.064Z,23.85
2023-08-20T22:01:09.568Z,23.81
2023-08-20T22:03:12.988Z,23.90
2023-08-20T22:05:17.286Z,23.87
2023-08-20T22:07:20.577Z,23.95
2023-08-20T22:09:25.770Z,23.71
2023-08-20T22:11:29.234Z,23.62
2023-08-20T22:13:32.662Z,23.42
2023-08-20T22:15:35.951Z,23.86
2023-08-20T22:17:39.490Z,23.69
2023-08-20T22:19:43.054Z,23.67
2023-08-20T22:21:47.680Z,23.80
2023-08-20T22:23:51.550Z,23.65
2023-08-20T22:25:56.385Z,23.87
2023-08-20T22:27:59.714Z,23.74
2023-08-20T22:30:02.098Z,23.43
2023-08-20T22:32:06.001Z,23.50
2023-08-20T22:34:09.488Z,23.36
2023-08-20T22:36:12.793Z,23.49
2023-08-20T22:38:16.630Z,23.53
2023-08-20T22:40:20.115Z,23.22
2023-08-20T22:42:25.007Z,23.35
2023-08-20T22:44:28.382Z,23.06
2023-08-20T22:46:31.850Z,22.71
2023-08-20T22:48:35.326Z,22.97
2023-08-20T22:50:39.270Z,22.73
2023-08-20T22:52:42.641Z,22.83
2023-08-20T22:54:45.970Z,22.80
2023-08-20T22:56:49.344Z,22.76
2023-08-20T22:58:54.063Z,22.68
2023-08-20T23:00:57.535Z,22.62
2023-08-20T23:03:00.969Z,22.49
2023-08-20T23:05:05.411Z,22.46
2023-08-20T23:07:08.854Z,22.70
2023-08-20T23:09:12.262Z,22.49
2023-08-20T23:11:15.621Z,22.56
2023-08-20T23:13:18.951Z,22.54
2023-08-20T23:15:24.570Z,22.44
2023-08-20T23:17:28.776Z,22.24
2023-08-20T23:19:32.328Z,22.27
2023-08-20T23:21:35.749Z,22.29
2023-08-20T23:23:39.183Z,22.62
2023-08-20T23:25:42.606Z,22.31
2023-08-20T23:27:45.922Z,22.36
2023-08-20T23:29:49.486Z,22.36
2023-08-20T23:31:54.245Z,22.34
2023-08-20T23:33:57.690Z,22.46
2023-08-20T23:36:03.293Z,22.35
2023-08-20T23:38:06.697Z,22.14
2023-08-20T23:40:11.517Z,22.26
2023-08-20T23:42:15.479Z,22.20
2023-08-20T23:44:19.509Z,22.04
2023-08-20T23:46:34.205Z,22.00
2023-08-20T23:48:47.966Z,21.97
2023-08-20T23:50:51.268Z,22.04
2023-08-20T23:52:54.907Z,21.80
2023-08-20T23:54:58.433Z,21.67
2023-08-20T23:57:02.405Z,21.69
2023-08-20T23:59:05.828Z,21.84
